sensor_id;sensor_type;location;lat;lon;timestamp;pressure;altitude;pressure_sealevel;temperature;humidity
78986;BME280;68384;55.750;48.746;2023-03-14T00:00:41;99464.84;;;-5.69;68.58
78986;BME280;68384;55.750;48.746;2023-03-14T00:01:45;99462.47;;;-5.68;68.63
78986;BME280;68384;55.750;48.746;2023-03-14T00:02:52;99471.06;;;-5.66;68.56
78986;BME280;68384;55.750;48.746;2023-03-14T00:03:56;99465.38;;;-5.63;68.72
78986;BME280;68384;55.750;48.746;2023-03-14T00:04:59;99466.28;;;-5.63;68.55
78986;BME280;68384;55.750;48.746;2023-03-14T00:06:05;99469.06;;;-5.60;68.72
78986;BME280;68384;55.750;48.746;2023-03-14T00:07:07;99470.97;;;-5.57;68.61
78986;BME280;68384;55.750;48.746;2023-03-14T00:08:13;99471.59;;;-5.60;68.74
78986;BME280;68384;55.750;48.746;2023-03-14T00:09:16;99471.38;;;-5.53;68.41
78986;BME280;68384;55.750;48.746;2023-03-14T00:10:19;99471.66;;;-5.50;68.76
78986;BME280;68384;55.750;48.746;2023-03-14T00:11:22;99457.84;;;-5.53;68.58
78986;BME280;68384;55.750;48.746;2023-03-14T00:12:30;99469.38;;;-5.47;68.63
78986;BME280;68384;55.750;48.746;2023-03-14T00:13:35;99477.25;;;-5.44;68.67
78986;BME280;68384;55.750;48.746;2023-03-14T00:14:39;99476.22;;;-5.46;68.72
78986;BME280;68384;55.750;48.746;2023-03-14T00:15:43;99475.94;;;-5.49;68.89
78986;BME280;68384;55.750;48.746;2023-03-14T00:16:47;99458.47;;;-5.56;69.17
78986;BME280;68384;55.750;48.746;2023-03-14T00:17:50;99466.47;;;-5.51;69.21
78986;BME280;68384;55.750;48.746;2023-03-14T00:18:54;99460.72;;;-5.59;69.09
78986;BME280;68384;55.750;48.746;2023-03-14T00:19:56;99487.19;;;-5.45;69.29
78986;BME280;68384;55.750;48.746;2023-03-14T00:21:07;99488.06;;;-5.45;70.05
78986;BME280;68384;55.750;48.746;2023-03-14T00:22:10;99483.91;;;-5.44;69.75
78986;BME280;68384;55.750;48.746;2023-03-14T00:23:14;99490.75;;;-5.43;69.77
78986;BME280;68384;55.750;48.746;2023-03-14T00:24:16;99492.38;;;-5.44;69.82
78986;BME280;68384;55.750;48.746;2023-03-14T00:25:20;99486.59;;;-5.43;70.03
78986;BME280;68384;55.750;48.746;2023-03-14T00:26:23;99494.41;;;-5.40;69.92
78986;BME280;68384;55.750;48.746;2023-03-14T00:27:27;99490.00;;;-5.42;70.07
78986;BME280;68384;55.750;48.746;2023-03-14T00:28:29;99496.94;;;-5.40;70.13
78986;BME280;68384;55.750;48.746;2023-03-14T00:29:34;99489.53;;;-5.38;70.29
78986;BME280;68384;55.750;48.746;2023-03-14T00:30:37;99494.56;;;-5.38;70.18
78986;BME280;68384;55.750;48.746;2023-03-14T00:31:41;99491.88;;;-5.40;70.33
78986;BME280;68384;55.750;48.746;2023-03-14T00:32:45;99505.28;;;-5.41;70.51
78986;BME280;68384;55.750;48.746;2023-03-14T00:33:48;99506.81;;;-5.43;70.36
78986;BME280;68384;55.750;48.746;2023-03-14T00:34:51;99505.03;;;-5.44;70.52
78986;BME280;68384;55.750;48.746;2023-03-14T00:35:55;99508.16;;;-5.46;70.52
78986;BME280;68384;55.750;48.746;2023-03-14T00:36:59;99511.31;;;-5.49;70.63
78986;BME280;68384;55.750;48.746;2023-03-14T00:38:02;99509.41;;;-5.51;70.56
78986;BME280;68384;55.750;48.746;2023-03-14T00:39:06;99508.63;;;-5.50;70.75
78986;BME280;68384;55.750;48.746;2023-03-14T00:40:10;99512.81;;;-5.51;70.52
78986;BME280;68384;55.750;48.746;2023-03-14T00:41:14;99513.41;;;-5.53;70.63
78986;BME280;68384;55.750;48.746;2023-03-14T00:42:18;99512.38;;;-5.55;70.63
78986;BME280;68384;55.750;48.746;2023-03-14T00:43:21;99527.69;;;-5.54;70.57
78986;BME280;68384;55.750;48.746;2023-03-14T00:44:24;99522.38;;;-5.57;70.61
78986;BME280;68384;55.750;48.746;2023-03-14T00:45:29;99493.09;;;-5.73;70.98
78986;BME280;68384;55.750;48.746;2023-03-14T00:46:32;99515.25;;;-5.61;71.09
78986;BME280;68384;55.750;48.746;2023-03-14T00:47:36;99518.78;;;-5.59;70.93
78986;BME280;68384;55.750;48.746;2023-03-14T00:48:39;99522.09;;;-5.60;71.12
78986;BME280;68384;55.750;48.746;2023-03-14T00:49:43;99520.19;;;-5.62;71.17
78986;BME280;68384;55.750;48.746;2023-03-14T00:50:46;99520.81;;;-5.65;70.83
78986;BME280;68384;55.750;48.746;2023-03-14T00:51:50;99523.44;;;-5.63;71.10
78986;BME280;68384;55.750;48.746;2023-03-14T00:52:53;99524.56;;;-5.70;71.21
78986;BME280;68384;55.750;48.746;2023-03-14T00:53:57;99527.19;;;-5.68;71.23
78986;BME280;68384;55.750;48.746;2023-03-14T00:54:59;99518.47;;;-5.72;71.30
78986;BME280;68384;55.750;48.746;2023-03-14T00:56:04;99519.22;;;-5.73;71.13
78986;BME280;68384;55.750;48.746;2023-03-14T00:57:06;99522.50;;;-5.74;71.25
78986;BME280;68384;55.750;48.746;2023-03-14T00:58:11;99522.78;;;-5.71;71.30
78986;BME280;68384;55.750;48.746;2023-03-14T00:59:15;99519.22;;;-5.73;71.14
78986;BME280;68384;55.750;48.746;2023-03-14T01:00:19;99519.97;;;-5.74;71.15
78986;BME280;68384;55.750;48.746;2023-03-14T01:01:23;99527.41;;;-5.75;71.27
78986;BME280;68384;55.750;48.746;2023-03-14T01:02:28;99524.91;;;-5.75;71.04
78986;BME280;68384;55.750;48.746;2023-03-14T01:03:31;99527.53;;;-5.74;71.34
78986;BME280;68384;55.750;48.746;2023-03-14T01:04:35;99527.53;;;-5.74;71.37
78986;BME280;68384;55.750;48.746;2023-03-14T01:05:40;99529.31;;;-5.73;71.48
78986;BME280;68384;55.750;48.746;2023-03-14T01:06:42;99534.38;;;-5.73;71.57
78986;BME280;68384;55.750;48.746;2023-03-14T01:07:46;99531.69;;;-5.74;71.36
78986;BME280;68384;55.750;48.746;2023-03-14T01:08:49;99536.13;;;-5.72;71.75
78986;BME280;68384;55.750;48.746;2023-03-14T01:09:53;99529.31;;;-5.73;71.59
78986;BME280;68384;55.750;48.746;2023-03-14T01:10:56;99533.59;;;-5.72;71.67
78986;BME280;68384;55.750;48.746;2023-03-14T01:11:59;99542.97;;;-5.71;72.01
78986;BME280;68384;55.750;48.746;2023-03-14T01:13:02;99538.81;;;-5.70;71.95
78986;BME280;68384;55.750;48.746;2023-03-14T01:14:05;99545.59;;;-5.69;71.84
78986;BME280;68384;55.750;48.746;2023-03-14T01:15:09;99535.50;;;-5.69;71.62
78986;BME280;68384;55.750;48.746;2023-03-14T01:16:13;99537.31;;;-5.68;71.84
78986;BME280;68384;55.750;48.746;2023-03-14T01:17:17;99544.13;;;-5.67;71.74
78986;BME280;68384;55.750;48.746;2023-03-14T01:18:21;99545.88;;;-5.66;71.71
78986;BME280;68384;55.750;48.746;2023-03-14T01:19:24;99545.88;;;-5.66;71.78
78986;BME280;68384;55.750;48.746;2023-03-14T01:20:27;99548.28;;;-5.68;71.85
78986;BME280;68384;55.750;48.746;2023-03-14T01:21:31;99552.56;;;-5.67;71.93
78986;BME280;68384;55.750;48.746;2023-03-14T01:22:35;99553.34;;;-5.68;72.00
78986;BME280;68384;55.750;48.746;2023-03-14T01:23:38;99558.50;;;-5.66;71.86
78986;BME280;68384;55.750;48.746;2023-03-14T01:24:42;99564.44;;;-5.66;71.69
78986;BME280;68384;55.750;48.746;2023-03-14T01:25:45;99563.56;;;-5.66;71.90
78986;BME280;68384;55.750;48.746;2023-03-14T01:26:48;99561.03;;;-5.66;71.89
78986;BME280;68384;55.750;48.746;2023-03-14T01:27:52;99563.72;;;-5.65;72.26
78986;BME280;68384;55.750;48.746;2023-03-14T01:28:55;99555.59;;;-5.71;71.77
78986;BME280;68384;55.750;48.746;2023-03-14T01:29:59;99571.00;;;-5.68;71.72
78986;BME280;68384;55.750;48.746;2023-03-14T01:31:02;99568.50;;;-5.68;71.70
78986;BME280;68384;55.750;48.746;2023-03-14T01:32:06;99576.69;;;-5.70;71.65
78986;BME280;68384;55.750;48.746;2023-03-14T01:33:11;99568.06;;;-5.72;71.53
78986;BME280;68384;55.750;48.746;2023-03-14T01:34:15;99564.66;;;-5.73;71.53
78986;BME280;68384;55.750;48.746;2023-03-14T01:35:17;99575.63;;;-5.72;71.74
78986;BME280;68384;55.750;48.746;2023-03-14T01:36:21;99571.19;;;-5.75;71.54
78986;BME280;68384;55.750;48.746;2023-03-14T01:37:24;99569.44;;;-5.76;71.50
78986;BME280;68384;55.750;48.746;2023-03-14T01:38:28;99565.28;;;-5.75;71.82
78986;BME280;68384;55.750;48.746;2023-03-14T01:39:30;99572.69;;;-5.77;71.15
78986;BME280;68384;55.750;48.746;2023-03-14T01:40:41;99570.06;;;-5.78;71.03
78986;BME280;68384;55.750;48.746;2023-03-14T01:41:44;99578.47;;;-5.78;70.96
78986;BME280;68384;55.750;48.746;2023-03-14T01:42:53;99583.28;;;-5.81;70.81
78986;BME280;68384;55.750;48.746;2023-03-14T01:43:56;99573.50;;;-5.87;70.72
78986;BME280;68384;55.750;48.746;2023-03-14T01:45:00;99586.13;;;-5.87;70.85
78986;BME280;68384;55.750;48.746;2023-03-14T01:46:22;99584.22;;;-5.89;70.81
78986;BME280;68384;55.750;48.746;2023-03-14T01:47:27;99591.50;;;-5.92;70.90
78986;BME280;68384;55.750;48.746;2023-03-14T01:48:34;99588.69;;;-5.95;70.81
78986;BME280;68384;55.750;48.746;2023-03-14T01:49:39;99588.53;;;-5.97;71.10
78986;BME280;68384;55.750;48.746;2023-03-14T01:50:43;99570.50;;;-6.10;70.70
78986;BME280;68384;55.750;48.746;2023-03-14T01:51:51;99595.56;;;-6.03;71.27
78986;BME280;68384;55.750;48.746;2023-03-14T01:52:57;99585.94;;;-6.07;71.17
78986;BME280;68384;55.750;48.746;2023-03-14T01:54:06;99597.81;;;-6.06;71.45
78986;BME280;68384;55.750;48.746;2023-03-14T01:55:13;99592.47;;;-6.09;71.53
78986;BME280;68384;55.750;48.746;2023-03-14T01:56:19;99590.84;;;-6.08;71.61
78986;BME280;68384;55.750;48.746;2023-03-14T01:57:24;99589.81;;;-6.10;71.49
78986;BME280;68384;55.750;48.746;2023-03-14T01:58:33;99598.13;;;-6.11;71.71
78986;BME280;68384;55.750;48.746;2023-03-14T01:59:37;99602.41;;;-6.10;71.81
78986;BME280;68384;55.750;48.746;2023-03-14T02:00:41;99601.41;;;-6.12;72.03
78986;BME280;68384;55.750;48.746;2023-03-14T02:01:46;99611.63;;;-6.11;72.58
78986;BME280;68384;55.750;48.746;2023-03-14T02:02:54;99601.88;;;-6.16;72.28
78986;BME280;68384;55.750;48.746;2023-03-14T02:04:03;99604.41;;;-6.16;72.14
78986;BME280;68384;55.750;48.746;2023-03-14T02:05:08;99608.69;;;-6.15;72.25
78986;BME280;68384;55.750;48.746;2023-03-14T02:06:15;99606.75;;;-6.18;72.19
78986;BME280;68384;55.750;48.746;2023-03-14T02:07:22;99612.09;;;-6.15;72.27
78986;BME280;68384;55.750;48.746;2023-03-14T02:08:29;99611.97;;;-6.16;72.61
78986;BME280;68384;55.750;48.746;2023-03-14T02:09:33;99618.63;;;-6.17;72.39
78986;BME280;68384;55.750;48.746;2023-03-14T02:10:40;99604.56;;;-6.23;72.65
78986;BME280;68384;55.750;48.746;2023-03-14T02:11:44;99613.91;;;-6.22;72.62
78986;BME280;68384;55.750;48.746;2023-03-14T02:12:49;99596.13;;;-6.32;72.67
78986;BME280;68384;55.750;48.746;2023-03-14T02:13:52;99618.66;;;-6.25;72.84
78986;BME280;68384;55.750;48.746;2023-03-14T02:14:56;99622.81;;;-6.26;72.84
78986;BME280;68384;55.750;48.746;2023-03-14T02:16:00;99621.94;;;-6.26;72.88
78986;BME280;68384;55.750;48.746;2023-03-14T02:17:04;99617.19;;;-6.32;73.02
78986;BME280;68384;55.750;48.746;2023-03-14T02:18:09;99624.94;;;-6.30;73.14
78986;BME280;68384;55.750;48.746;2023-03-14T02:19:14;99629.06;;;-6.31;73.26
78986;BME280;68384;55.750;48.746;2023-03-14T02:20:28;99617.81;;;-6.34;73.36
78986;BME280;68384;55.750;48.746;2023-03-14T02:21:41;99635.47;;;-6.34;73.41
78986;BME280;68384;55.750;48.746;2023-03-14T02:22:48;99625.69;;;-6.40;73.49
78986;BME280;68384;55.750;48.746;2023-03-14T02:23:57;99634.88;;;-6.41;73.66
78986;BME280;68384;55.750;48.746;2023-03-14T02:25:08;99633.56;;;-6.46;73.60
78986;BME280;68384;55.750;48.746;2023-03-14T02:26:15;99639.38;;;-6.47;73.86
78986;BME280;68384;55.750;48.746;2023-03-14T02:27:22;99639.63;;;-6.44;73.86
78986;BME280;68384;55.750;48.746;2023-03-14T02:28:25;99642.63;;;-6.48;73.74
78986;BME280;68384;55.750;48.746;2023-03-14T02:29:29;99649.59;;;-6.45;73.94
78986;BME280;68384;55.750;48.746;2023-03-14T02:30:34;99644.25;;;-6.48;74.10
78986;BME280;68384;55.750;48.746;2023-03-14T02:31:38;99640.09;;;-6.48;74.03
78986;BME280;68384;55.750;48.746;2023-03-14T02:32:47;99643.34;;;-6.49;74.34
78986;BME280;68384;55.750;48.746;2023-03-14T02:33:52;99638.91;;;-6.51;74.44
78986;BME280;68384;55.750;48.746;2023-03-14T02:34:58;99643.22;;;-6.50;74.53
78986;BME280;68384;55.750;48.746;2023-03-14T02:36:04;99642.31;;;-6.51;74.48
78986;BME280;68384;55.750;48.746;2023-03-14T02:37:09;99646.34;;;-6.53;74.66
78986;BME280;68384;55.750;48.746;2023-03-14T02:38:17;99652.88;;;-6.55;74.96
78986;BME280;68384;55.750;48.746;2023-03-14T02:39:29;99654.63;;;-6.54;74.49
78986;BME280;68384;55.750;48.746;2023-03-14T02:40:35;99658.78;;;-6.54;74.75
78986;BME280;68384;55.750;48.746;2023-03-14T02:41:38;99659.69;;;-6.54;74.74
78986;BME280;68384;55.750;48.746;2023-03-14T02:42:43;99659.56;;;-6.55;74.74
78986;BME280;68384;55.750;48.746;2023-03-14T02:43:47;99659.69;;;-6.54;74.72
78986;BME280;68384;55.750;48.746;2023-03-14T02:44:52;99662.97;;;-6.55;74.56
78986;BME280;68384;55.750;48.746;2023-03-14T02:45:57;99658.78;;;-6.54;74.68
78986;BME280;68384;55.750;48.746;2023-03-14T02:47:11;99662.97;;;-6.55;74.77
78986;BME280;68384;55.750;48.746;2023-03-14T02:48:17;99669.03;;;-6.53;74.55
78986;BME280;68384;55.750;48.746;2023-03-14T02:49:21;99666.50;;;-6.53;74.52
78986;BME280;68384;55.750;48.746;2023-03-14T02:50:25;99668.13;;;-6.53;74.60
78986;BME280;68384;55.750;48.746;2023-03-14T02:51:32;99674.97;;;-6.52;75.12
78986;BME280;68384;55.750;48.746;2023-03-14T02:52:35;99680.75;;;-6.53;74.79
78986;BME280;68384;55.750;48.746;2023-03-14T02:53:38;99677.31;;;-6.54;74.83
78986;BME280;68384;55.750;48.746;2023-03-14T02:54:43;99674.97;;;-6.52;74.73
78986;BME280;68384;55.750;48.746;2023-03-14T02:55:47;99679.84;;;-6.54;74.94
78986;BME280;68384;55.750;48.746;2023-03-14T02:56:51;99674.81;;;-6.54;74.78
78986;BME280;68384;55.750;48.746;2023-03-14T02:57:55;99680.75;;;-6.53;74.74
78986;BME280;68384;55.750;48.746;2023-03-14T02:58:59;99672.00;;;-6.57;74.79
78986;BME280;68384;55.750;48.746;2023-03-14T03:00:05;99675.69;;;-6.53;74.84
78986;BME280;68384;55.750;48.746;2023-03-14T03:01:10;99676.72;;;-6.51;74.75
78986;BME280;68384;55.750;48.746;2023-03-14T03:02:13;99673.31;;;-6.52;74.96
78986;BME280;68384;55.750;48.746;2023-03-14T03:03:16;99678.34;;;-6.52;74.72
78986;BME280;68384;55.750;48.746;2023-03-14T03:04:19;99681.94;;;-6.50;74.71
78986;BME280;68384;55.750;48.746;2023-03-14T03:05:23;99686.09;;;-6.50;74.88
78986;BME280;68384;55.750;48.746;2023-03-14T03:06:26;99679.25;;;-6.51;74.73
78986;BME280;68384;55.750;48.746;2023-03-14T03:07:29;99689.63;;;-6.48;75.03
78986;BME280;68384;55.750;48.746;2023-03-14T03:08:33;99687.84;;;-6.49;74.85
78986;BME280;68384;55.750;48.746;2023-03-14T03:09:36;99688.13;;;-6.46;75.01
78986;BME280;68384;55.750;48.746;2023-03-14T03:10:39;99694.06;;;-6.46;75.09
78986;BME280;68384;55.750;48.746;2023-03-14T03:11:43;99697.63;;;-6.44;74.87
78986;BME280;68384;55.750;48.746;2023-03-14T03:12:45;99695.88;;;-6.45;74.82
78986;BME280;68384;55.750;48.746;2023-03-14T03:13:51;99696.88;;;-6.43;74.86
78986;BME280;68384;55.750;48.746;2023-03-14T03:14:54;99703.56;;;-6.43;74.71
78986;BME280;68384;55.750;48.746;2023-03-14T03:15:57;99696.00;;;-6.43;74.66
78986;BME280;68384;55.750;48.746;2023-03-14T03:17:01;99693.47;;;-6.43;74.76
78986;BME280;68384;55.750;48.746;2023-03-14T03:18:03;99694.22;;;-6.44;74.73
78986;BME280;68384;55.750;48.746;2023-03-14T03:19:07;99695.09;;;-6.44;74.60
78986;BME280;68384;55.750;48.746;2023-03-14T03:20:10;99693.94;;;-6.38;74.65
78986;BME280;68384;55.750;48.746;2023-03-14T03:21:14;99674.81;;;-6.54;74.72
78986;BME280;68384;55.750;48.746;2023-03-14T03:22:17;99702.22;;;-6.40;74.77
78986;BME280;68384;55.750;48.746;2023-03-14T03:23:21;99710.97;;;-6.36;74.93
78986;BME280;68384;55.750;48.746;2023-03-14T03:24:24;99705.03;;;-6.36;74.47
78986;BME280;68384;55.750;48.746;2023-03-14T03:25:28;99704.44;;;-6.34;74.55
78986;BME280;68384;55.750;48.746;2023-03-14T03:26:31;99718.25;;;-6.30;74.58
78986;BME280;68384;55.750;48.746;2023-03-14T03:27:36;99720.88;;;-6.29;74.44
78986;BME280;68384;55.750;48.746;2023-03-14T03:28:38;99724.00;;;-6.31;74.27
78986;BME280;68384;55.750;48.746;2023-03-14T03:29:44;99732.59;;;-6.29;74.37
78986;BME280;68384;55.750;48.746;2023-03-14T03:30:46;99735.28;;;-6.28;74.20
78986;BME280;68384;55.750;48.746;2023-03-14T03:31:50;99744.47;;;-6.28;74.30
78986;BME280;68384;55.750;48.746;2023-03-14T03:32:53;99747.00;;;-6.28;73.78
78986;BME280;68384;55.750;48.746;2023-03-14T03:33:57;99745.38;;;-6.28;74.11
78986;BME280;68384;55.750;48.746;2023-03-14T03:34:59;99743.16;;;-6.25;74.10
78986;BME280;68384;55.750;48.746;2023-03-14T03:36:04;99740.47;;;-6.26;73.89
78986;BME280;68384;55.750;48.746;2023-03-14T03:37:07;99743.28;;;-6.23;74.10
78986;BME280;68384;55.750;48.746;2023-03-14T03:38:11;99748.63;;;-6.20;74.05
78986;BME280;68384;55.750;48.746;2023-03-14T03:39:14;99748.63;;;-6.20;74.08
78986;BME280;68384;55.750;48.746;2023-03-14T03:40:17;99749.50;;;-6.20;74.07
78986;BME280;68384;55.750;48.746;2023-03-14T03:41:20;99746.41;;;-6.17;73.94
78986;BME280;68384;55.750;48.746;2023-03-14T03:42:23;99754.25;;;-6.14;74.20
78986;BME280;68384;55.750;48.746;2023-03-14T03:43:26;99745.19;;;-6.12;73.97
78986;BME280;68384;55.750;48.746;2023-03-14T03:44:30;99744.47;;;-6.11;73.77
78986;BME280;68384;55.750;48.746;2023-03-14T03:45:34;99752.44;;;-6.07;73.70
78986;BME280;68384;55.750;48.746;2023-03-14T03:46:38;99753.34;;;-6.06;73.54
78986;BME280;68384;55.750;48.746;2023-03-14T03:47:40;99762.84;;;-6.04;73.51
78986;BME280;68384;55.750;48.746;2023-03-14T03:48:44;99757.63;;;-6.05;73.41
78986;BME280;68384;55.750;48.746;2023-03-14T03:49:47;99765.50;;;-6.02;73.52
78986;BME280;68384;55.750;48.746;2023-03-14T03:50:50;99756.91;;;-6.04;73.37
78986;BME280;68384;55.750;48.746;2023-03-14T03:51:53;99759.09;;;-5.99;73.56
78986;BME280;68384;55.750;48.746;2023-03-14T03:52:56;99769.31;;;-5.97;73.56
78986;BME280;68384;55.750;48.746;2023-03-14T03:54:00;99768.88;;;-5.93;73.57
78986;BME280;68384;55.750;48.746;2023-03-14T03:55:03;99768.16;;;-5.92;73.30
78986;BME280;68384;55.750;48.746;2023-03-14T03:56:08;99764.13;;;-5.90;73.38
78986;BME280;68384;55.750;48.746;2023-03-14T03:57:11;99770.97;;;-5.89;73.43
78986;BME280;68384;55.750;48.746;2023-03-14T03:58:15;99763.53;;;-5.88;73.64
78986;BME280;68384;55.750;48.746;2023-03-14T03:59:18;99769.00;;;-5.83;73.48
78986;BME280;68384;55.750;48.746;2023-03-14T04:00:22;99764.84;;;-5.83;73.31
78986;BME280;68384;55.750;48.746;2023-03-14T04:01:26;99780.41;;;-5.78;73.25
78986;BME280;68384;55.750;48.746;2023-03-14T04:02:30;99755.22;;;-5.87;73.13
78986;BME280;68384;55.750;48.746;2023-03-14T04:03:33;99770.91;;;-5.72;73.22
78986;BME280;68384;55.750;48.746;2023-03-14T04:04:37;99763.03;;;-5.75;72.93
78986;BME280;68384;55.750;48.746;2023-03-14T04:05:40;99772.97;;;-5.68;73.04
78986;BME280;68384;55.750;48.746;2023-03-14T04:06:44;99783.66;;;-5.62;73.17
78986;BME280;68384;55.750;48.746;2023-03-14T04:07:46;99790.63;;;-5.59;72.89
78986;BME280;68384;55.750;48.746;2023-03-14T04:08:50;99781.66;;;-5.56;72.84
78986;BME280;68384;55.750;48.746;2023-03-14T04:09:52;99769.38;;;-5.61;72.95
78986;BME280;68384;55.750;48.746;2023-03-14T04:10:57;99782.25;;;-5.50;72.86
78986;BME280;68384;55.750;48.746;2023-03-14T04:12:00;99785.53;;;-5.51;73.01
78986;BME280;68384;55.750;48.746;2023-03-14T04:13:03;99795.91;;;-5.48;72.64
78986;BME280;68384;55.750;48.746;2023-03-14T04:14:06;99796.19;;;-5.45;72.85
78986;BME280;68384;55.750;48.746;2023-03-14T04:15:10;99802.00;;;-5.46;72.66
78986;BME280;68384;55.750;48.746;2023-03-14T04:16:14;99805.84;;;-5.41;72.51
78986;BME280;68384;55.750;48.746;2023-03-14T04:17:21;99800.19;;;-5.38;72.69
78986;BME280;68384;55.750;48.746;2023-03-14T04:18:25;99801.06;;;-5.38;72.84
78986;BME280;68384;55.750;48.746;2023-03-14T04:19:29;99803.13;;;-5.34;72.89
78986;BME280;68384;55.750;48.746;2023-03-14T04:20:34;99797.94;;;-5.35;72.90
78986;BME280;68384;55.750;48.746;2023-03-14T04:21:37;99804.75;;;-5.34;73.09
78986;BME280;68384;55.750;48.746;2023-03-14T04:22:42;99816.03;;;-5.31;72.73
78986;BME280;68384;55.750;48.746;2023-03-14T04:23:46;99815.31;;;-5.30;72.80
78986;BME280;68384;55.750;48.746;2023-03-14T04:24:49;99819.13;;;-5.25;72.85
78986;BME280;68384;55.750;48.746;2023-03-14T04:25:53;99812.59;;;-5.23;72.62
78986;BME280;68384;55.750;48.746;2023-03-14T04:26:56;99820.44;;;-5.20;72.63
78986;BME280;68384;55.750;48.746;2023-03-14T04:28:00;99816.69;;;-5.14;72.67
78986;BME280;68384;55.750;48.746;2023-03-14T04:29:06;99832.44;;;-5.08;72.35
78986;BME280;68384;55.750;48.746;2023-03-14T04:30:09;99823.22;;;-5.08;72.17
78986;BME280;68384;55.750;48.746;2023-03-14T04:31:15;99827.09;;;-5.11;72.00
78986;BME280;68384;55.750;48.746;2023-03-14T04:32:18;99830.81;;;-5.08;72.25
78986;BME280;68384;55.750;48.746;2023-03-14T04:33:24;99830.19;;;-5.05;72.03
78986;BME280;68384;55.750;48.746;2023-03-14T04:34:26;99827.19;;;-5.01;71.90
78986;BME280;68384;55.750;48.746;2023-03-14T04:35:30;99821.69;;;-4.97;72.08
78986;BME280;68384;55.750;48.746;2023-03-14T04:36:33;99823.91;;;-5.00;71.54
78986;BME280;68384;55.750;48.746;2023-03-14T04:37:40;99832.69;;;-4.97;71.82
78986;BME280;68384;55.750;48.746;2023-03-14T04:38:45;99839.94;;;-4.91;71.81
78986;BME280;68384;55.750;48.746;2023-03-14T04:39:48;99834.88;;;-4.91;71.72
78986;BME280;68384;55.750;48.746;2023-03-14T04:40:51;99841.97;;;-4.87;71.66
78986;BME280;68384;55.750;48.746;2023-03-14T04:41:54;99847.47;;;-4.83;71.65
78986;BME280;68384;55.750;48.746;2023-03-14T04:42:57;99840.03;;;-4.81;71.30
78986;BME280;68384;55.750;48.746;2023-03-14T04:44:01;99834.69;;;-4.84;71.34
78986;BME280;68384;55.750;48.746;2023-03-14T04:45:04;99842.81;;;-4.78;71.07
78986;BME280;68384;55.750;48.746;2023-03-14T04:46:08;99845.19;;;-4.80;71.02
78986;BME280;68384;55.750;48.746;2023-03-14T04:47:11;99838.38;;;-4.81;71.15
78986;BME280;68384;55.750;48.746;2023-03-14T04:48:14;99856.22;;;-4.79;71.38
78986;BME280;68384;55.750;48.746;2023-03-14T04:49:18;99850.13;;;-4.81;71.25
78986;BME280;68384;55.750;48.746;2023-03-14T04:50:23;99858.41;;;-4.74;71.21
78986;BME280;68384;55.750;48.746;2023-03-14T04:51:25;99866.88;;;-4.73;71.20
78986;BME280;68384;55.750;48.746;2023-03-14T04:52:30;99855.06;;;-4.83;70.98
78986;BME280;68384;55.750;48.746;2023-03-14T04:53:33;99862.78;;;-4.81;71.27
78986;BME280;68384;55.750;48.746;2023-03-14T04:54:38;99873.63;;;-4.82;71.45
78986;BME280;68384;55.750;48.746;2023-03-14T04:55:41;99860.97;;;-4.82;71.55
78986;BME280;68384;55.750;48.746;2023-03-14T04:56:44;99861.25;;;-4.79;71.45
78986;BME280;68384;55.750;48.746;2023-03-14T04:57:47;99863.66;;;-4.81;71.62
78986;BME280;68384;55.750;48.746;2023-03-14T04:58:50;99865.78;;;-4.85;71.49
78986;BME280;68384;55.750;48.746;2023-03-14T04:59:53;99861.25;;;-4.79;71.46
78986;BME280;68384;55.750;48.746;2023-03-14T05:01:01;99866.19;;;-4.81;71.38
78986;BME280;68384;55.750;48.746;2023-03-14T05:02:04;99867.50;;;-4.76;71.55
78986;BME280;68384;55.750;48.746;2023-03-14T05:03:08;99873.75;;;-4.72;71.28
78986;BME280;68384;55.750;48.746;2023-03-14T05:04:10;99865.09;;;-4.74;71.08
78986;BME280;68384;55.750;48.746;2023-03-14T05:05:16;99869.13;;;-4.76;71.28
78986;BME280;68384;55.750;48.746;2023-03-14T05:06:19;99875.66;;;-4.70;71.23
78986;BME280;68384;55.750;48.746;2023-03-14T05:07:22;99881.59;;;-4.69;71.01
78986;BME280;68384;55.750;48.746;2023-03-14T05:08:25;99871.75;;;-4.66;71.07
78986;BME280;68384;55.750;48.746;2023-03-14T05:09:28;99868.47;;;-4.65;70.71
78986;BME280;68384;55.750;48.746;2023-03-14T05:10:31;99870.41;;;-4.63;70.82
78986;BME280;68384;55.750;48.746;2023-03-14T05:11:35;99873.34;;;-4.58;70.57
78986;BME280;68384;55.750;48.746;2023-03-14T05:12:37;99876.41;;;-4.52;70.40
78986;BME280;68384;55.750;48.746;2023-03-14T05:13:41;99873.44;;;-4.48;70.33
78986;BME280;68384;55.750;48.746;2023-03-14T05:14:43;99864.75;;;-4.41;70.32
78986;BME280;68384;55.750;48.746;2023-03-14T05:15:47;99868.16;;;-4.41;70.08
78986;BME280;68384;55.750;48.746;2023-03-14T05:16:51;99866.94;;;-4.36;70.31
78986;BME280;68384;55.750;48.746;2023-03-14T05:17:54;99867.75;;;-4.27;69.71
78986;BME280;68384;55.750;48.746;2023-03-14T05:18:57;99865.91;;;-4.19;69.83
78986;BME280;68384;55.750;48.746;2023-03-14T05:20:02;99870.50;;;-4.15;69.72
78986;BME280;68384;55.750;48.746;2023-03-14T05:21:11;99868.53;;;-4.09;69.27
78986;BME280;68384;55.750;48.746;2023-03-14T05:22:15;99865.50;;;-4.05;68.84
78986;BME280;68384;55.750;48.746;2023-03-14T05:23:17;99871.75;;;-4.02;68.67
78986;BME280;68384;55.750;48.746;2023-03-14T05:24:21;99841.78;;;-4.16;68.46
78986;BME280;68384;55.750;48.746;2023-03-14T05:25:24;99882.41;;;-3.95;68.44
78986;BME280;68384;55.750;48.746;2023-03-14T05:26:27;99877.97;;;-3.98;68.35
78986;BME280;68384;55.750;48.746;2023-03-14T05:27:30;99875.56;;;-3.96;68.28
78986;BME280;68384;55.750;48.746;2023-03-14T05:28:34;99875.09;;;-3.92;68.31
78986;BME280;68384;55.750;48.746;2023-03-14T05:29:37;99875.34;;;-3.89;68.36
78986;BME280;68384;55.750;48.746;2023-03-14T05:30:40;99884.31;;;-3.93;67.92
78986;BME280;68384;55.750;48.746;2023-03-14T05:31:43;99882.81;;;-3.91;68.18
78986;BME280;68384;55.750;48.746;2023-03-14T05:32:47;99882.94;;;-3.89;67.99
78986;BME280;68384;55.750;48.746;2023-03-14T05:33:50;99880.28;;;-3.91;67.97
78986;BME280;68384;55.750;48.746;2023-03-14T05:34:53;99881.72;;;-3.84;67.76
78986;BME280;68384;55.750;48.746;2023-03-14T05:36:00;99888.69;;;-3.82;67.74